Stephen M. White — WCU6542 — position and weather

sailwx.info

Track history (hours):
 
Tides and Currents Weather Stations Pressure Air Temp Water Temp Dewpoint Dewpoint Depression Visibility Wind Speed Wind Dir Waves Ship Positions

Stephen M. White

Owner: LOS ANGELES, CITY OF, SAN PEDRO, CA. More information available from US FCC via Universal Licensing System and Coast Guard Vessel Documentation Center.

Last reported at 2014-Oct-26 09:28 UTC. Time now 2014-Oct-26 09:37 UTC.
Position N 33°43' W 118°16'.

Length 20 m.

Type: Pilot. MMSI: 367049470.

Date/timePositionNaut miles runAvg speedWind from/ knotsBaromVisibWave heightAir tempDewpointWater temp
2014-Oct-26 09:28N 33°43' W 118°16'0 0.0
2014-Oct-26 08:17N 33°43' W 118°16'0 0.0
2014-Oct-26 03:05N 33°43' W 118°16'0 0.2
2014-Oct-26 01:33N 33°43' W 118°16'0 0.0
2014-Oct-26 00:33N 33°43' W 118°16'0 0.0
2014-Oct-25 23:33N 33°43' W 118°16'0 0.0
2014-Oct-25 22:33N 33°43' W 118°16'1 0.7
2014-Oct-25 21:33N 33°43' W 118°16'1 0.7
2014-Oct-25 20:33N 33°43' W 118°16'0 0.0
2014-Oct-25 19:33N 33°43' W 118°16'0 0.0
2014-Oct-25 18:33N 33°43' W 118°16'0 0.0
2014-Oct-25 17:33N 33°43' W 118°16'0 0.0
2014-Oct-25 16:33N 33°43' W 118°16'0 0.0
2014-Oct-25 15:33N 33°43' W 118°16'0 0.0
2014-Oct-25 14:33N 33°43' W 118°16'0 0.0
2014-Oct-25 13:33N 33°43' W 118°16'0 0.0
2014-Oct-25 12:33N 33°43' W 118°16'2 1.7
2014-Oct-25 11:33N 33°42' W 118°15'2 1.7
2014-Oct-25 10:33N 33°43' W 118°16'2 2.2
2014-Oct-25 09:33N 33°42' W 118°14'2 2.2
2014-Oct-25 08:33N 33°43' W 118°16'0 0.0
2014-Oct-25 07:33N 33°43' W 118°16'0 0.0
2014-Oct-25 06:33N 33°43' W 118°16'0 0.0
2014-Oct-25 05:33N 33°43' W 118°16'0 0.0
2014-Oct-25 04:33N 33°43' W 118°16'0 0.0
2014-Oct-25 03:33N 33°43' W 118°16'0 0.0
2014-Oct-25 02:33N 33°43' W 118°16'0 0.0
2014-Oct-25 01:33N 33°43' W 118°16'0 0.0
2014-Oct-25 00:34N 33°43' W 118°16'0 0.2
2014-Oct-24 23:33N 33°43' W 118°16'0 0.2
2014-Oct-24 22:33N 33°43' W 118°16'0 0.0
2014-Oct-24 21:33N 33°43' W 118°16'2 2.2
2014-Oct-24 20:33N 33°42' W 118°15'2 2.2
2014-Oct-24 19:33N 33°43' W 118°16'0 0.0
2014-Oct-24 18:33N 33°43' W 118°16'0 0.0
2014-Oct-24 17:33N 33°43' W 118°16'0 0.0
2014-Oct-24 16:33N 33°43' W 118°16'2 2.1
2014-Oct-24 15:34N 33°42' W 118°15'2 2.1
2014-Oct-24 14:33N 33°43' W 118°16'0 0.0
2014-Oct-24 13:33N 33°43' W 118°16'2 2.4
2014-Oct-24 12:33N 33°42' W 118°14'2 2.3
2014-Oct-24 11:33N 33°43' W 118°16'0 0.0
2014-Oct-24 10:33N 33°43' W 118°16'0 0.0
2014-Oct-24 09:34N 33°43' W 118°16'0 0.0
2014-Oct-24 08:34N 33°43' W 118°16'2 2.2
2014-Oct-24 07:34N 33°42' W 118°15'2 2.2
2014-Oct-24 06:34N 33°43' W 118°16'0 0.0
2014-Oct-24 05:34N 33°43' W 118°16'0 0.0
2014-Oct-24 04:34N 33°43' W 118°16'0 0.0
2014-Oct-24 03:34N 33°43' W 118°16'1 1.4
2014-Oct-24 02:33N 33°43' W 118°15'1 1.4
2014-Oct-24 01:33N 33°43' W 118°16'0 0.0
2014-Oct-24 00:33N 33°43' W 118°16'0 0.0
2014-Oct-23 23:33N 33°43' W 118°16'0 0.0
2014-Oct-23 22:33N 33°43' W 118°16'0 0.0
2014-Oct-23 21:33N 33°43' W 118°16'0 0.0
2014-Oct-23 20:33N 33°43' W 118°16'0 0.0
2014-Oct-23 19:34N 33°43' W 118°16'0 0.0
2014-Oct-23 18:33N 33°43' W 118°16'0 0.0
2014-Oct-23 17:33N 33°43' W 118°16'1 1.0
2014-Oct-23 16:33N 33°43' W 118°15'1 1.0
2014-Oct-23 15:33N 33°43' W 118°16'0 0.0
2014-Oct-23 14:34N 33°43' W 118°16'0 0.0
2014-Oct-23 13:34N 33°43' W 118°16'3 2.8
2014-Oct-23 12:33N 33°41' W 118°14'3 2.9
2014-Oct-23 11:33N 33°43' W 118°16'0 0.0
2014-Oct-23 10:33N 33°43' W 118°16'0 0.0
2014-Oct-23 09:33N 33°43' W 118°16'0 0.0
2014-Oct-23 08:33N 33°43' W 118°16'0 0.0
2014-Oct-23 07:33N 33°43' W 118°16'0 0.0
2014-Oct-23 06:33N 33°43' W 118°16'0 0.0
2014-Oct-23 05:33N 33°43' W 118°16'0 0.0
2014-Oct-23 04:33N 33°43' W 118°16'0 0.0
2014-Oct-23 03:33N 33°43' W 118°16'0 0.0
2014-Oct-23 02:33N 33°43' W 118°16'1 1.3
2014-Oct-23 01:34N 33°43' W 118°15'1 1.3
2014-Oct-23 00:33N 33°43' W 118°16'0 0.0
2014-Oct-22 23:34N 33°43' W 118°16'0 0.0
2014-Oct-22 22:33N 33°43' W 118°16'0 0.0
2014-Oct-22 21:34N 33°43' W 118°16'0 0.0
2014-Oct-22 20:33N 33°43' W 118°16'0 0.0
2014-Oct-22 19:33N 33°43' W 118°16'0 0.0
2014-Oct-22 18:33N 33°43' W 118°16'0 0.0
2014-Oct-22 13:10N 33°43' W 118°16'0 0.0
2014-Oct-22 12:33N 33°43' W 118°16'2 2.1
2014-Oct-22 11:32N 33°42' W 118°14'2 2.1
2014-Oct-22 10:32N 33°43' W 118°16'0 0.0
2014-Oct-22 09:33N 33°43' W 118°16'0 0.0
2014-Oct-22 08:33N 33°43' W 118°16'0 0.0
2014-Oct-22 07:33N 33°43' W 118°16'0 0.0
2014-Oct-22 06:24N 33°43' W 118°16'0 0.0
2014-Oct-22 05:33N 33°43' W 118°16'0 0.0
2014-Oct-22 04:25N 33°43' W 118°16'0 0.0
2014-Oct-22 03:33N 33°43' W 118°16'0 0.0
2014-Oct-22 02:33N 33°43' W 118°16'0 0.0
2014-Oct-22 01:33N 33°43' W 118°16'0 0.0
2014-Oct-22 00:33N 33°43' W 118°16'1 1.2
2014-Oct-21 23:33N 33°43' W 118°15'1 1.2
2014-Oct-21 22:33N 33°43' W 118°16'0 0.0
2014-Oct-21 21:28N 33°43' W 118°16'0 0.0
2014-Oct-21 19:11N 33°43' W 118°16'0 0.0
2014-Oct-21 18:26N 33°43' W 118°16'0 0.0
2014-Oct-21 17:29N 33°43' W 118°16'3 2.7
2014-Oct-21 16:33N 33°46' W 118°16'0 0.0
2014-Oct-21 15:33N 33°46' W 118°16'0 0.0
2014-Oct-21 14:31N 33°46' W 118°16'0 0.0
2014-Oct-21 13:33N 33°46' W 118°16'3 1.5
2014-Oct-21 11:33N 33°43' W 118°15'1 0.9
2014-Oct-21 10:33N 33°43' W 118°16'0 0.0
2014-Oct-21 09:23N 33°43' W 118°16'0 0.0
2014-Oct-21 08:19N 33°43' W 118°16'0 0.0
2014-Oct-21 07:13N 33°43' W 118°16'0 0.0
2014-Oct-21 06:33N 33°43' W 118°16'0 0.0
2014-Oct-21 05:33N 33°43' W 118°16'0 0.0
2014-Oct-21 04:21N 33°43' W 118°16'2 0.9
2014-Oct-21 01:33N 33°44' W 118°13'3 0.2
2014-Oct-20 14:26N 33°44' W 118°17'1 0.8
2014-Oct-20 13:10N 33°43' W 118°16'1 1.1
2014-Oct-20 12:13N 33°42' W 118°15'1 1.5
2014-Oct-20 11:15N 33°43' W 118°16'0 0.1
2014-Oct-20 08:32N 33°43' W 118°16'0 0.1
2014-Oct-20 05:24N 33°43' W 118°16'0 0.3
2014-Oct-20 04:28N 33°43' W 118°16'0 0.2
2014-Oct-20 02:31N 33°43' W 118°16'1 1.6
2014-Oct-20 01:33N 33°42' W 118°15'1 1.3
2014-Oct-20 00:22N 33°43' W 118°16'0 0.0
2014-Oct-19 23:33N 33°43' W 118°16'0 0.0
2014-Oct-19 22:10N 33°43' W 118°16'0 0.0
2014-Oct-18 13:19N 33°43' W 118°16'0 0.0
2014-Oct-18 11:29N 33°43' W 118°16'0 0.0
2014-Oct-18 01:15N 33°43' W 118°16'1 0.6
2014-Oct-18 00:11N 33°43' W 118°16'1 1.2
2014-Oct-17 23:13N 33°44' W 118°16'0 0.3
2014-Oct-17 22:07N 33°44' W 118°16'1 1.0
2014-Oct-17 21:27N 33°44' W 118°17'2 0.3
2014-Oct-17 13:07N 33°42' W 118°15'1 0.3
2014-Oct-17 10:32N 33°43' W 118°15'1 0.1
2014-Oct-16 22:28N 33°43' W 118°16'0 0.0
2014-Oct-16 21:33N 33°43' W 118°16'1 0.1
2014-Oct-16 13:13N 33°43' W 118°16'  
Track history (hours):
 
Tides and Currents Weather Stations Pressure Air Temp Water Temp Dewpoint Dewpoint Depression Visibility Wind Speed Wind Dir Waves Ship Positions

Stephen M. White

Owner: LOS ANGELES, CITY OF, SAN PEDRO, CA. More information available from US FCC via Universal Licensing System and Coast Guard Vessel Documentation Center.

Last reported at 2014-Oct-26 09:28 UTC. Time now 2014-Oct-26 09:37 UTC.
Position N 33°43' W 118°16'.

Length 20 m.

Type: Pilot. MMSI: 367049470.

Date/timePositionNaut miles runAvg speedWind from/ knotsBaromVisibWave heightAir tempDewpointWater temp
2014-Oct-26 09:28N 33°43' W 118°16'0 0.0
2014-Oct-26 08:17N 33°43' W 118°16'0 0.0
2014-Oct-26 03:05N 33°43' W 118°16'0 0.2
2014-Oct-26 01:33N 33°43' W 118°16'0 0.0
2014-Oct-26 00:33N 33°43' W 118°16'0 0.0
2014-Oct-25 23:33N 33°43' W 118°16'0 0.0
2014-Oct-25 22:33N 33°43' W 118°16'1 0.7
2014-Oct-25 21:33N 33°43' W 118°16'1 0.7
2014-Oct-25 20:33N 33°43' W 118°16'0 0.0
2014-Oct-25 19:33N 33°43' W 118°16'0 0.0
2014-Oct-25 18:33N 33°43' W 118°16'0 0.0
2014-Oct-25 17:33N 33°43' W 118°16'0 0.0
2014-Oct-25 16:33N 33°43' W 118°16'0 0.0
2014-Oct-25 15:33N 33°43' W 118°16'0 0.0
2014-Oct-25 14:33N 33°43' W 118°16'0 0.0
2014-Oct-25 13:33N 33°43' W 118°16'0 0.0
2014-Oct-25 12:33N 33°43' W 118°16'2 1.7
2014-Oct-25 11:33N 33°42' W 118°15'2 1.7
2014-Oct-25 10:33N 33°43' W 118°16'2 2.2
2014-Oct-25 09:33N 33°42' W 118°14'2 2.2
2014-Oct-25 08:33N 33°43' W 118°16'0 0.0
2014-Oct-25 07:33N 33°43' W 118°16'0 0.0
2014-Oct-25 06:33N 33°43' W 118°16'0 0.0
2014-Oct-25 05:33N 33°43' W 118°16'0 0.0
2014-Oct-25 04:33N 33°43' W 118°16'0 0.0
2014-Oct-25 03:33N 33°43' W 118°16'0 0.0
2014-Oct-25 02:33N 33°43' W 118°16'0 0.0
2014-Oct-25 01:33N 33°43' W 118°16'0 0.0
2014-Oct-25 00:34N 33°43' W 118°16'0 0.2
2014-Oct-24 23:33N 33°43' W 118°16'0 0.2
2014-Oct-24 22:33N 33°43' W 118°16'0 0.0
2014-Oct-24 21:33N 33°43' W 118°16'2 2.2
2014-Oct-24 20:33N 33°42' W 118°15'2 2.2
2014-Oct-24 19:33N 33°43' W 118°16'0 0.0
2014-Oct-24 18:33N 33°43' W 118°16'0 0.0
2014-Oct-24 17:33N 33°43' W 118°16'0 0.0
2014-Oct-24 16:33N 33°43' W 118°16'2 2.1
2014-Oct-24 15:34N 33°42' W 118°15'2 2.1
2014-Oct-24 14:33N 33°43' W 118°16'0 0.0
2014-Oct-24 13:33N 33°43' W 118°16'2 2.4
2014-Oct-24 12:33N 33°42' W 118°14'2 2.3
2014-Oct-24 11:33N 33°43' W 118°16'0 0.0
2014-Oct-24 10:33N 33°43' W 118°16'0 0.0
2014-Oct-24 09:34N 33°43' W 118°16'0 0.0
2014-Oct-24 08:34N 33°43' W 118°16'2 2.2
2014-Oct-24 07:34N 33°42' W 118°15'2 2.2
2014-Oct-24 06:34N 33°43' W 118°16'0 0.0
2014-Oct-24 05:34N 33°43' W 118°16'0 0.0
2014-Oct-24 04:34N 33°43' W 118°16'0 0.0
2014-Oct-24 03:34N 33°43' W 118°16'1 1.4
2014-Oct-24 02:33N 33°43' W 118°15'1 1.4
2014-Oct-24 01:33N 33°43' W 118°16'0 0.0
2014-Oct-24 00:33N 33°43' W 118°16'0 0.0
2014-Oct-23 23:33N 33°43' W 118°16'0 0.0
2014-Oct-23 22:33N 33°43' W 118°16'0 0.0
2014-Oct-23 21:33N 33°43' W 118°16'0 0.0
2014-Oct-23 20:33N 33°43' W 118°16'0 0.0
2014-Oct-23 19:34N 33°43' W 118°16'0 0.0
2014-Oct-23 18:33N 33°43' W 118°16'0 0.0
2014-Oct-23 17:33N 33°43' W 118°16'1 1.0
2014-Oct-23 16:33N 33°43' W 118°15'1 1.0
2014-Oct-23 15:33N 33°43' W 118°16'0 0.0
2014-Oct-23 14:34N 33°43' W 118°16'0 0.0
2014-Oct-23 13:34N 33°43' W 118°16'3 2.8
2014-Oct-23 12:33N 33°41' W 118°14'3 2.9
2014-Oct-23 11:33N 33°43' W 118°16'0 0.0
2014-Oct-23 10:33N 33°43' W 118°16'0 0.0
2014-Oct-23 09:33N 33°43' W 118°16'0 0.0
2014-Oct-23 08:33N 33°43' W 118°16'0 0.0
2014-Oct-23 07:33N 33°43' W 118°16'0 0.0
2014-Oct-23 06:33N 33°43' W 118°16'0 0.0
2014-Oct-23 05:33N 33°43' W 118°16'0 0.0
2014-Oct-23 04:33N 33°43' W 118°16'0 0.0
2014-Oct-23 03:33N 33°43' W 118°16'0 0.0
2014-Oct-23 02:33N 33°43' W 118°16'1 1.3
2014-Oct-23 01:34N 33°43' W 118°15'1 1.3
2014-Oct-23 00:33N 33°43' W 118°16'0 0.0
2014-Oct-22 23:34N 33°43' W 118°16'0 0.0
2014-Oct-22 22:33N 33°43' W 118°16'0 0.0
2014-Oct-22 21:34N 33°43' W 118°16'0 0.0
2014-Oct-22 20:33N 33°43' W 118°16'0 0.0
2014-Oct-22 19:33N 33°43' W 118°16'0 0.0
2014-Oct-22 18:33N 33°43' W 118°16'0 0.0
2014-Oct-22 13:10N 33°43' W 118°16'0 0.0
2014-Oct-22 12:33N 33°43' W 118°16'2 2.1
2014-Oct-22 11:32N 33°42' W 118°14'2 2.1
2014-Oct-22 10:32N 33°43' W 118°16'0 0.0
2014-Oct-22 09:33N 33°43' W 118°16'0 0.0
2014-Oct-22 08:33N 33°43' W 118°16'0 0.0
2014-Oct-22 07:33N 33°43' W 118°16'0 0.0
2014-Oct-22 06:24N 33°43' W 118°16'0 0.0
2014-Oct-22 05:33N 33°43' W 118°16'0 0.0
2014-Oct-22 04:25N 33°43' W 118°16'0 0.0
2014-Oct-22 03:33N 33°43' W 118°16'0 0.0
2014-Oct-22 02:33N 33°43' W 118°16'0 0.0
2014-Oct-22 01:33N 33°43' W 118°16'0 0.0
2014-Oct-22 00:33N 33°43' W 118°16'1 1.2
2014-Oct-21 23:33N 33°43' W 118°15'1 1.2
2014-Oct-21 22:33N 33°43' W 118°16'0 0.0
2014-Oct-21 21:28N 33°43' W 118°16'0 0.0
2014-Oct-21 19:11N 33°43' W 118°16'0 0.0
2014-Oct-21 18:26N 33°43' W 118°16'0 0.0
2014-Oct-21 17:29N 33°43' W 118°16'3 2.7
2014-Oct-21 16:33N 33°46' W 118°16'0 0.0
2014-Oct-21 15:33N 33°46' W 118°16'0 0.0
2014-Oct-21 14:31N 33°46' W 118°16'0 0.0
2014-Oct-21 13:33N 33°46' W 118°16'3 1.5
2014-Oct-21 11:33N 33°43' W 118°15'1 0.9
2014-Oct-21 10:33N 33°43' W 118°16'0 0.0
2014-Oct-21 09:23N 33°43' W 118°16'0 0.0
2014-Oct-21 08:19N 33°43' W 118°16'0 0.0
2014-Oct-21 07:13N 33°43' W 118°16'0 0.0
2014-Oct-21 06:33N 33°43' W 118°16'0 0.0
2014-Oct-21 05:33N 33°43' W 118°16'0 0.0
2014-Oct-21 04:21N 33°43' W 118°16'2 0.9
2014-Oct-21 01:33N 33°44' W 118°13'3 0.2
2014-Oct-20 14:26N 33°44' W 118°17'1 0.8
2014-Oct-20 13:10N 33°43' W 118°16'1 1.1
2014-Oct-20 12:13N 33°42' W 118°15'1 1.5
2014-Oct-20 11:15N 33°43' W 118°16'0 0.1
2014-Oct-20 08:32N 33°43' W 118°16'0 0.1
2014-Oct-20 05:24N 33°43' W 118°16'0 0.3
2014-Oct-20 04:28N 33°43' W 118°16'0 0.2
2014-Oct-20 02:31N 33°43' W 118°16'1 1.6
2014-Oct-20 01:33N 33°42' W 118°15'1 1.3
2014-Oct-20 00:22N 33°43' W 118°16'0 0.0
2014-Oct-19 23:33N 33°43' W 118°16'0 0.0
2014-Oct-19 22:10N 33°43' W 118°16'0 0.0
2014-Oct-18 13:19N 33°43' W 118°16'0 0.0
2014-Oct-18 11:29N 33°43' W 118°16'0 0.0
2014-Oct-18 01:15N 33°43' W 118°16'1 0.6
2014-Oct-18 00:11N 33°43' W 118°16'1 1.2
2014-Oct-17 23:13N 33°44' W 118°16'0 0.3
2014-Oct-17 22:07N 33°44' W 118°16'1 1.0
2014-Oct-17 21:27N 33°44' W 118°17'2 0.3
2014-Oct-17 13:07N 33°42' W 118°15'1 0.3
2014-Oct-17 10:32N 33°43' W 118°15'1 0.1
2014-Oct-16 22:28N 33°43' W 118°16'0 0.0
2014-Oct-16 21:33N 33°43' W 118°16'1 0.1
2014-Oct-16 13:13N 33°43' W 118°16'  

Dump ship's entire track history